sensor_id;sensor_type;location;lat;lon;timestamp;pressure;altitude;pressure_sealevel;temperature;humidity
41250;BME280;26984;59.928;30.306;2023-08-06T00:01:50;101416.16;;;20.78;100.00
41250;BME280;26984;59.928;30.306;2023-08-06T00:04:18;101427.94;;;20.79;100.00
41250;BME280;26984;59.928;30.306;2023-08-06T00:06:45;101418.38;;;20.82;100.00
41250;BME280;26984;59.928;30.306;2023-08-06T00:09:12;101429.03;;;20.83;100.00
41250;BME280;26984;59.928;30.306;2023-08-06T00:11:40;101427.41;;;20.82;100.00
41250;BME280;26984;59.928;30.306;2023-08-06T00:14:09;101424.09;;;20.80;100.00
41250;BME280;26984;59.928;30.306;2023-08-06T00:16:37;101426.84;;;20.80;100.00
41250;BME280;26984;59.928;30.306;2023-08-06T00:19:06;101421.63;;;20.78;100.00
41250;BME280;26984;59.928;30.306;2023-08-06T00:21:33;101419.97;;;20.77;100.00
41250;BME280;26984;59.928;30.306;2023-08-06T00:24:01;101431.78;;;20.83;100.00
41250;BME280;26984;59.928;30.306;2023-08-06T00:26:28;101437.53;;;20.82;100.00
41250;BME280;26984;59.928;30.306;2023-08-06T00:28:56;101431.50;;;20.85;100.00
41250;BME280;26984;59.928;30.306;2023-08-06T00:31:23;101429.31;;;20.82;100.00
41250;BME280;26984;59.928;30.306;2023-08-06T00:33:50;101433.41;;;20.79;100.00
41250;BME280;26984;59.928;30.306;2023-08-06T00:36:19;101431.22;;;20.81;100.00
41250;BME280;26984;59.928;30.306;2023-08-06T00:38:47;101431.78;;;20.83;100.00
41250;BME280;26984;59.928;30.306;2023-08-06T00:41:14;101431.50;;;20.85;100.00
41250;BME280;26984;59.928;30.306;2023-08-06T00:43:42;101429.06;;;20.88;100.00
41250;BME280;26984;59.928;30.306;2023-08-06T00:46:09;101434.25;;;20.85;100.00
41250;BME280;26984;59.928;30.306;2023-08-06T00:48:37;101428.75;;;20.85;100.00
41250;BME280;26984;59.928;30.306;2023-08-06T00:51:05;101430.97;;;20.88;100.00
41250;BME280;26984;59.928;30.306;2023-08-06T00:53:34;101435.09;;;20.85;100.00
41250;BME280;26984;59.928;30.306;2023-08-06T00:56:03;101431.50;;;20.85;100.00
41250;BME280;26984;59.928;30.306;2023-08-06T00:58:30;101429.91;;;20.89;100.00
41250;BME280;26984;59.928;30.306;2023-08-06T01:00:58;101423.28;;;20.85;100.00
41250;BME280;26984;59.928;30.306;2023-08-06T01:03:25;101428.25;;;20.88;100.00
41250;BME280;26984;59.928;30.306;2023-08-06T01:05:53;101418.09;;;20.83;100.00
41250;BME280;26984;59.928;30.306;2023-08-06T01:08:23;101419.44;;;20.80;100.00
41250;BME280;26984;59.928;30.306;2023-08-06T01:11:00;101402.00;;;20.97;100.00
41250;BME280;26984;59.928;30.306;2023-08-06T01:13:30;101397.97;;;21.15;100.00
41250;BME280;26984;59.928;30.306;2023-08-06T01:15:59;101401.28;;;21.27;100.00
41250;BME280;26984;59.928;30.306;2023-08-06T01:18:27;101392.34;;;21.42;100.00
41250;BME280;26984;59.928;30.306;2023-08-06T01:20:56;101397.81;;;21.47;100.00
41250;BME280;26984;59.928;30.306;2023-08-06T01:23:24;101397.03;;;21.57;100.00
41250;BME280;26984;59.928;30.306;2023-08-06T01:25:53;101392.34;;;21.62;100.00
41250;BME280;26984;59.928;30.306;2023-08-06T01:28:25;101394.84;;;21.69;100.00
41250;BME280;26984;59.928;30.306;2023-08-06T01:30:54;101395.13;;;21.72;100.00
41250;BME280;26984;59.928;30.306;2023-08-06T01:33:22;101392.13;;;21.74;100.00
41250;BME280;26984;59.928;30.306;2023-08-06T01:35:50;101395.69;;;21.74;100.00
41250;BME280;26984;59.928;30.306;2023-08-06T01:38:19;101393.75;;;21.75;100.00
41250;BME280;26984;59.928;30.306;2023-08-06T01:40:47;101395.69;;;21.74;100.00
41250;BME280;26984;59.928;30.306;2023-08-06T01:43:14;101402.78;;;21.75;100.00
41250;BME280;26984;59.928;30.306;2023-08-06T01:45:41;101406.09;;;21.78;100.00
41250;BME280;26984;59.928;30.306;2023-08-06T01:48:09;101398.16;;;21.81;100.00
41250;BME280;26984;59.928;30.306;2023-08-06T01:50:36;101397.31;;;21.86;100.00
41250;BME280;26984;59.928;30.306;2023-08-06T01:53:04;101401.44;;;21.88;100.00
41250;BME280;26984;59.928;30.306;2023-08-06T01:55:32;101398.69;;;21.93;100.00
41250;BME280;26984;59.928;30.306;2023-08-06T01:58:00;101378.38;;;21.94;100.00
41250;BME280;26984;59.928;30.306;2023-08-06T02:00:27;101389.09;;;22.01;100.00
41250;BME280;26984;59.928;30.306;2023-08-06T02:02:55;101371.81;;;22.00;100.00
41250;BME280;26984;59.928;30.306;2023-08-06T02:05:22;101372.34;;;21.97;100.00
41250;BME280;26984;59.928;30.306;2023-08-06T02:07:50;101369.34;;;21.94;100.00
41250;BME280;26984;59.928;30.306;2023-08-06T02:10:17;101380.59;;;21.92;100.00
41250;BME280;26984;59.928;30.306;2023-08-06T02:12:46;101376.47;;;21.90;100.00
41250;BME280;26984;59.928;30.306;2023-08-06T02:15:13;101386.63;;;21.89;100.00
41250;BME280;26984;59.928;30.306;2023-08-06T02:17:41;101381.97;;;21.85;100.00
41250;BME280;26984;59.928;30.306;2023-08-06T02:20:08;101384.16;;;21.83;100.00
41250;BME280;26984;59.928;30.306;2023-08-06T02:22:36;101380.31;;;21.79;100.00
41250;BME280;26984;59.928;30.306;2023-08-06T02:25:04;101378.41;;;21.74;100.00
41250;BME280;26984;59.928;30.306;2023-08-06T02:27:31;101376.72;;;21.73;100.00
41250;BME280;26984;59.928;30.306;2023-08-06T02:30:00;101371.25;;;21.73;100.00
41250;BME280;26984;59.928;30.306;2023-08-06T02:32:29;101371.81;;;21.75;100.00
41250;BME280;26984;59.928;30.306;2023-08-06T02:35:00;101372.06;;;21.84;100.00
41250;BME280;26984;59.928;30.306;2023-08-06T02:37:27;101380.06;;;21.95;100.00
41250;BME280;26984;59.928;30.306;2023-08-06T02:39:55;101374.81;;;22.04;100.00
41250;BME280;26984;59.928;30.306;2023-08-06T02:42:22;101382.53;;;22.02;100.00
41250;BME280;26984;59.928;30.306;2023-08-06T02:44:51;101386.34;;;21.91;100.00
41250;BME280;26984;59.928;30.306;2023-08-06T02:47:22;101384.44;;;21.81;100.00
41250;BME280;26984;59.928;30.306;2023-08-06T02:49:50;101384.41;;;21.76;100.00
41250;BME280;26984;59.928;30.306;2023-08-06T02:52:17;101388.53;;;21.68;100.00
41250;BME280;26984;59.928;30.306;2023-08-06T02:54:45;101389.34;;;21.59;100.00
41250;BME280;26984;59.928;30.306;2023-08-06T02:57:14;101390.97;;;21.55;100.00
41250;BME280;26984;59.928;30.306;2023-08-06T02:59:42;101390.16;;;21.49;100.00
41250;BME280;26984;59.928;30.306;2023-08-06T03:02:16;101393.44;;;21.46;100.00
41250;BME280;26984;59.928;30.306;2023-08-06T03:05:08;101392.06;;;21.43;100.00
41250;BME280;26984;59.928;30.306;2023-08-06T03:07:40;101402.13;;;21.33;100.00
41250;BME280;26984;59.928;30.306;2023-08-06T03:10:28;101404.88;;;21.33;100.00
41250;BME280;26984;59.928;30.306;2023-08-06T03:13:00;101406.28;;;21.40;100.00
41250;BME280;26984;59.928;30.306;2023-08-06T03:15:28;101397.00;;;21.46;100.00
41250;BME280;26984;59.928;30.306;2023-08-06T03:17:55;101403.28;;;21.42;100.00
41250;BME280;26984;59.928;30.306;2023-08-06T03:20:26;101403.50;;;21.30;100.00
41250;BME280;26984;59.928;30.306;2023-08-06T03:22:53;101396.06;;;21.20;100.00
41250;BME280;26984;59.928;30.306;2023-08-06T03:25:21;101398.50;;;21.12;100.00
41250;BME280;26984;59.928;30.306;2023-08-06T03:27:49;101395.47;;;21.03;100.00
41250;BME280;26984;59.928;30.306;2023-08-06T03:30:18;101390.75;;;20.93;100.00
41250;BME280;26984;59.928;30.306;2023-08-06T03:32:47;101390.19;;;20.86;100.00
41250;BME280;26984;59.928;30.306;2023-08-06T03:35:18;101390.13;;;20.81;100.00
41250;BME280;26984;59.928;30.306;2023-08-06T03:37:47;101381.63;;;20.77;100.00
41250;BME280;26984;59.928;30.306;2023-08-06T03:40:16;101385.47;;;20.76;100.00
41250;BME280;26984;59.928;30.306;2023-08-06T03:42:43;101395.59;;;20.76;100.00
41250;BME280;26984;59.928;30.306;2023-08-06T03:45:11;101391.19;;;20.70;100.00
41250;BME280;26984;59.928;30.306;2023-08-06T03:47:40;101398.28;;;20.66;100.00
41250;BME280;26984;59.928;30.306;2023-08-06T03:50:08;101386.22;;;20.62;100.00
41250;BME280;26984;59.928;30.306;2023-08-06T03:52:35;101388.13;;;20.61;100.00
41250;BME280;26984;59.928;30.306;2023-08-06T03:55:04;101385.91;;;20.58;100.00
41250;BME280;26984;59.928;30.306;2023-08-06T03:57:32;101384.81;;;20.59;100.00
41250;BME280;26984;59.928;30.306;2023-08-06T03:59:59;101391.41;;;20.58;100.00
41250;BME280;26984;59.928;30.306;2023-08-06T04:02:30;101382.06;;;20.54;100.00
41250;BME280;26984;59.928;30.306;2023-08-06T04:05:00;101376.88;;;20.58;100.00
41250;BME280;26984;59.928;30.306;2023-08-06T04:07:28;101380.00;;;20.76;100.00
41250;BME280;26984;59.928;30.306;2023-08-06T04:09:57;101388.03;;;20.93;100.00
41250;BME280;26984;59.928;30.306;2023-08-06T04:12:27;101386.44;;;21.08;100.00
41250;BME280;26984;59.928;30.306;2023-08-06T04:14:54;101377.97;;;21.19;100.00
41250;BME280;26984;59.928;30.306;2023-08-06T04:17:22;101378.28;;;21.28;100.00
41250;BME280;26984;59.928;30.306;2023-08-06T04:19:50;101367.31;;;21.33;100.00
41250;BME280;26984;59.928;30.306;2023-08-06T04:22:17;101363.25;;;21.41;100.00
41250;BME280;26984;59.928;30.306;2023-08-06T04:24:45;101372.31;;;21.46;100.00
41250;BME280;26984;59.928;30.306;2023-08-06T04:27:13;101367.13;;;21.50;100.00
41250;BME280;26984;59.928;30.306;2023-08-06T04:29:44;101345.44;;;21.48;100.00
41250;BME280;26984;59.928;30.306;2023-08-06T04:32:12;101345.44;;;21.43;100.00
41250;BME280;26984;59.928;30.306;2023-08-06T04:34:45;101346.28;;;21.44;100.00
41250;BME280;26984;59.928;30.306;2023-08-06T04:37:14;101348.72;;;21.40;100.00
41250;BME280;26984;59.928;30.306;2023-08-06T04:39:41;101340.50;;;21.35;100.00
41250;BME280;26984;59.928;30.306;2023-08-06T04:42:10;101340.19;;;21.21;100.00
41250;BME280;26984;59.928;30.306;2023-08-06T04:44:37;101338.78;;;21.19;100.00
41250;BME280;26984;59.928;30.306;2023-08-06T04:47:06;101336.63;;;21.21;100.00
41250;BME280;26984;59.928;30.306;2023-08-06T04:49:34;101338.81;;;21.24;100.00
41250;BME280;26984;59.928;30.306;2023-08-06T04:52:02;101341.28;;;21.25;100.00
41250;BME280;26984;59.928;30.306;2023-08-06T04:54:29;101337.44;;;21.26;100.00
41250;BME280;26984;59.928;30.306;2023-08-06T04:56:56;101336.09;;;21.24;100.00
41250;BME280;26984;59.928;30.306;2023-08-06T04:59:24;101329.19;;;21.16;100.00
41250;BME280;26984;59.928;30.306;2023-08-06T05:01:51;101317.94;;;21.13;100.00
41250;BME280;26984;59.928;30.306;2023-08-06T05:04:20;101320.69;;;21.13;100.00
41250;BME280;26984;59.928;30.306;2023-08-06T05:06:48;101331.66;;;21.13;100.00
41250;BME280;26984;59.928;30.306;2023-08-06T05:09:15;101325.63;;;21.11;100.00
41250;BME280;26984;59.928;30.306;2023-08-06T05:11:42;101328.09;;;21.07;100.00
41250;BME280;26984;59.928;30.306;2023-08-06T05:14:10;101322.84;;;21.05;100.00
41250;BME280;26984;59.928;30.306;2023-08-06T05:16:37;101328.63;;;21.09;100.00
41250;BME280;26984;59.928;30.306;2023-08-06T05:19:05;101322.06;;;21.15;100.00
41250;BME280;26984;59.928;30.306;2023-08-06T05:21:33;101324.28;;;21.18;100.00
41250;BME280;26984;59.928;30.306;2023-08-06T05:24:01;101313.88;;;21.20;100.00
41250;BME280;26984;59.928;30.306;2023-08-06T05:26:28;101307.56;;;21.25;100.00
41250;BME280;26984;59.928;30.306;2023-08-06T05:28:56;101316.34;;;21.32;100.00
41250;BME280;26984;59.928;30.306;2023-08-06T05:31:23;101299.69;;;21.39;100.00
41250;BME280;26984;59.928;30.306;2023-08-06T05:33:50;101296.38;;;21.47;100.00
41250;BME280;26984;59.928;30.306;2023-08-06T05:36:18;101288.72;;;21.59;100.00
41250;BME280;26984;59.928;30.306;2023-08-06T05:38:47;101285.97;;;21.80;100.00
41250;BME280;26984;59.928;30.306;2023-08-06T05:41:14;101280.19;;;22.07;100.00
41250;BME280;26984;59.928;30.306;2023-08-06T05:43:41;101276.31;;;22.28;100.00
41250;BME280;26984;59.928;30.306;2023-08-06T05:46:09;101282.25;;;22.51;100.00
41250;BME280;26984;59.928;30.306;2023-08-06T05:48:36;101273.69;;;22.67;100.00
41250;BME280;26984;59.928;30.306;2023-08-06T05:51:04;101273.91;;;22.81;100.00
41250;BME280;26984;59.928;30.306;2023-08-06T05:53:31;101276.59;;;22.97;100.00
41250;BME280;26984;59.928;30.306;2023-08-06T05:56:00;101278.72;;;23.05;100.00
41250;BME280;26984;59.928;30.306;2023-08-06T05:58:27;101278.09;;;23.18;99.85
41250;BME280;26984;59.928;30.306;2023-08-06T06:00:56;101274.72;;;23.26;98.84
41250;BME280;26984;59.928;30.306;2023-08-06T06:03:23;101274.88;;;23.45;98.10
41250;BME280;26984;59.928;30.306;2023-08-06T06:05:51;101275.81;;;23.64;96.75
41250;BME280;26984;59.928;30.306;2023-08-06T06:08:18;101273.72;;;23.85;95.65
41250;BME280;26984;59.928;30.306;2023-08-06T06:10:45;101282.06;;;24.04;95.48
41250;BME280;26984;59.928;30.306;2023-08-06T06:13:14;101281.97;;;24.14;92.63
41250;BME280;26984;59.928;30.306;2023-08-06T06:15:42;101279.50;;;24.13;92.90
41250;BME280;26984;59.928;30.306;2023-08-06T06:18:09;101276.22;;;24.11;93.17
41250;BME280;26984;59.928;30.306;2023-08-06T06:20:37;101283.41;;;24.07;94.03
41250;BME280;26984;59.928;30.306;2023-08-06T06:23:04;101272.41;;;24.07;94.41
41250;BME280;26984;59.928;30.306;2023-08-06T06:25:32;101267.13;;;24.10;94.73
41250;BME280;26984;59.928;30.306;2023-08-06T06:27:59;101271.84;;;24.10;95.83
41250;BME280;26984;59.928;30.306;2023-08-06T06:30:28;101275.81;;;23.99;96.27
41250;BME280;26984;59.928;30.306;2023-08-06T06:32:55;101270.72;;;23.82;97.82
41250;BME280;26984;59.928;30.306;2023-08-06T06:35:23;101264.41;;;23.81;98.11
41250;BME280;26984;59.928;30.306;2023-08-06T06:37:50;101260.53;;;23.82;98.76
41250;BME280;26984;59.928;30.306;2023-08-06T06:40:17;101259.97;;;23.85;98.58
41250;BME280;26984;59.928;30.306;2023-08-06T06:42:45;101261.03;;;23.89;98.94
41250;BME280;26984;59.928;30.306;2023-08-06T06:45:14;101258.16;;;24.00;98.96
41250;BME280;26984;59.928;30.306;2023-08-06T06:47:43;101254.44;;;24.14;98.72
41250;BME280;26984;59.928;30.306;2023-08-06T06:50:10;101258.34;;;24.32;97.98
41250;BME280;26984;59.928;30.306;2023-08-06T06:52:38;101256.63;;;24.42;96.80
41250;BME280;26984;59.928;30.306;2023-08-06T06:55:05;101255.81;;;24.41;97.58
41250;BME280;26984;59.928;30.306;2023-08-06T06:57:33;101249.50;;;24.35;97.69
41250;BME280;26984;59.928;30.306;2023-08-06T07:00:00;101255.44;;;24.24;98.37
41250;BME280;26984;59.928;30.306;2023-08-06T07:02:28;101257.38;;;24.23;98.50
41250;BME280;26984;59.928;30.306;2023-08-06T07:04:57;101248.31;;;24.23;98.56
41250;BME280;26984;59.928;30.306;2023-08-06T07:07:24;101259.31;;;24.23;98.64
41250;BME280;26984;59.928;30.306;2023-08-06T07:09:51;101248.09;;;24.38;98.32
41250;BME280;26984;59.928;30.306;2023-08-06T07:12:19;101252.88;;;24.56;97.25
41250;BME280;26984;59.928;30.306;2023-08-06T07:14:47;101246.31;;;24.71;96.34
41250;BME280;26984;59.928;30.306;2023-08-06T07:17:15;101245.06;;;24.82;95.61
41250;BME280;26984;59.928;30.306;2023-08-06T07:19:42;101249.94;;;24.91;95.13
41250;BME280;26984;59.928;30.306;2023-08-06T07:22:11;101235.38;;;25.04;94.02
41250;BME280;26984;59.928;30.306;2023-08-06T07:24:38;101233.94;;;25.12;93.54
41250;BME280;26984;59.928;30.306;2023-08-06T07:27:06;101237.19;;;25.14;93.58
41250;BME280;26984;59.928;30.306;2023-08-06T07:29:33;101243.03;;;25.12;94.12
41250;BME280;26984;59.928;30.306;2023-08-06T07:32:01;101242.13;;;25.17;94.11
41250;BME280;26984;59.928;30.306;2023-08-06T07:34:28;101241.03;;;25.31;93.05
41250;BME280;26984;59.928;30.306;2023-08-06T07:36:55;101235.03;;;25.43;91.86
41250;BME280;26984;59.928;30.306;2023-08-06T07:39:24;101231.31;;;25.53;91.14
41250;BME280;26984;59.928;30.306;2023-08-06T07:41:54;101242.34;;;25.53;91.85
41250;BME280;26984;59.928;30.306;2023-08-06T07:44:21;101241.34;;;25.63;91.02
41250;BME280;26984;59.928;30.306;2023-08-06T07:46:49;101241.47;;;25.71;90.88
41250;BME280;26984;59.928;30.306;2023-08-06T07:49:17;101246.69;;;25.73;90.47
41250;BME280;26984;59.928;30.306;2023-08-06T07:51:44;101250.72;;;25.81;90.65
41250;BME280;26984;59.928;30.306;2023-08-06T07:54:12;101240.63;;;26.03;89.27
41250;BME280;26984;59.928;30.306;2023-08-06T07:56:41;101231.72;;;26.20;88.64
41250;BME280;26984;59.928;30.306;2023-08-06T07:59:08;101242.97;;;26.38;87.77
41250;BME280;26984;59.928;30.306;2023-08-06T08:01:36;101241.97;;;26.61;86.22
41250;BME280;26984;59.928;30.306;2023-08-06T08:04:03;101247.41;;;26.89;85.28
41250;BME280;26984;59.928;30.306;2023-08-06T08:06:32;101244.19;;;27.09;84.04
41250;BME280;26984;59.928;30.306;2023-08-06T08:09:00;101249.88;;;27.27;83.02
41250;BME280;26984;59.928;30.306;2023-08-06T08:11:28;101255.16;;;27.37;83.11
41250;BME280;26984;59.928;30.306;2023-08-06T08:13:56;101239.19;;;27.34;82.11
41250;BME280;26984;59.928;30.306;2023-08-06T08:16:24;101252.16;;;27.47;82.94
41250;BME280;26984;59.928;30.306;2023-08-06T08:18:51;101249.69;;;27.68;81.27
41250;BME280;26984;59.928;30.306;2023-08-06T08:21:19;101250.25;;;27.79;79.83
41250;BME280;26984;59.928;30.306;2023-08-06T08:23:46;101244.94;;;27.91;80.42
41250;BME280;26984;59.928;30.306;2023-08-06T08:26:13;101245.09;;;27.95;78.92
41250;BME280;26984;59.928;30.306;2023-08-06T08:28:41;101241.19;;;27.96;79.74
41250;BME280;26984;59.928;30.306;2023-08-06T08:31:10;101244.81;;;28.05;79.73
41250;BME280;26984;59.928;30.306;2023-08-06T08:33:37;101239.47;;;28.08;79.49
41250;BME280;26984;59.928;30.306;2023-08-06T08:36:04;101227.75;;;28.11;80.20
41250;BME280;26984;59.928;30.306;2023-08-06T08:38:32;101224.81;;;28.16;79.84
41250;BME280;26984;59.928;30.306;2023-08-06T08:40:59;101212.13;;;28.24;80.37
41250;BME280;26984;59.928;30.306;2023-08-06T08:43:27;101216.72;;;28.29;78.84
41250;BME280;26984;59.928;30.306;2023-08-06T08:45:54;101214.44;;;28.31;77.52
41250;BME280;26984;59.928;30.306;2023-08-06T08:48:26;101212.38;;;28.45;78.61
41250;BME280;26984;59.928;30.306;2023-08-06T08:50:54;101205.22;;;28.53;76.23
41250;BME280;26984;59.928;30.306;2023-08-06T08:53:22;101215.19;;;28.54;76.83
41250;BME280;26984;59.928;30.306;2023-08-06T08:55:50;101208.16;;;28.56;76.77
41250;BME280;26984;59.928;30.306;2023-08-06T08:58:19;101212.56;;;28.57;75.74
41250;BME280;26984;59.928;30.306;2023-08-06T09:00:46;101212.53;;;28.49;75.83
41250;BME280;26984;59.928;30.306;2023-08-06T09:03:15;101219.56;;;28.46;76.86
41250;BME280;26984;59.928;30.306;2023-08-06T09:05:45;101217.38;;;28.34;77.36
41250;BME280;26984;59.928;30.306;2023-08-06T09:08:15;101225.81;;;28.21;78.46
41250;BME280;26984;59.928;30.306;2023-08-06T09:10:44;101214.56;;;28.17;78.65
41250;BME280;26984;59.928;30.306;2023-08-06T09:13:15;101214.56;;;28.17;78.74
41250;BME280;26984;59.928;30.306;2023-08-06T09:15:43;101212.75;;;28.12;78.45
41250;BME280;26984;59.928;30.306;2023-08-06T09:18:11;101211.94;;;28.12;78.46
41250;BME280;26984;59.928;30.306;2023-08-06T09:20:39;101215.53;;;28.12;78.84
41250;BME280;26984;59.928;30.306;2023-08-06T09:23:08;101206.88;;;28.14;78.89
41250;BME280;26984;59.928;30.306;2023-08-06T09:25:37;101196.31;;;28.16;78.56
41250;BME280;26984;59.928;30.306;2023-08-06T09:28:05;101204.78;;;28.11;78.33
41250;BME280;26984;59.928;30.306;2023-08-06T09:30:33;101202.66;;;28.08;79.31
41250;BME280;26984;59.928;30.306;2023-08-06T09:33:00;101208.31;;;28.03;79.60
41250;BME280;26984;59.928;30.306;2023-08-06T09:35:29;101205.56;;;28.03;79.89
41250;BME280;26984;59.928;30.306;2023-08-06T09:38:01;101210.31;;;28.11;80.11
41250;BME280;26984;59.928;30.306;2023-08-06T09:40:34;101225.34;;;28.27;79.04
41250;BME280;26984;59.928;30.306;2023-08-06T09:43:01;101203.69;;;28.29;79.15
41250;BME280;26984;59.928;30.306;2023-08-06T09:45:30;101207.38;;;28.16;78.88
41250;BME280;26984;59.928;30.306;2023-08-06T09:47:58;101200.88;;;28.21;78.26
41250;BME280;26984;59.928;30.306;2023-08-06T09:50:28;101192.00;;;28.41;79.31
41250;BME280;26984;59.928;30.306;2023-08-06T09:52:56;101195.78;;;28.62;77.40
41250;BME280;26984;59.928;30.306;2023-08-06T09:55:24;101195.94;;;28.66;76.99
41250;BME280;26984;59.928;30.306;2023-08-06T09:57:53;101189.56;;;28.74;76.49
41250;BME280;26984;59.928;30.306;2023-08-06T10:00:21;101195.47;;;28.73;76.21
41250;BME280;26984;59.928;30.306;2023-08-06T10:02:49;101191.69;;;28.77;75.98
41250;BME280;26984;59.928;30.306;2023-08-06T10:05:20;101188.47;;;28.93;75.80
41250;BME280;26984;59.928;30.306;2023-08-06T10:07:48;101182.44;;;28.99;75.90
41250;BME280;26984;59.928;30.306;2023-08-06T10:10:16;101177.53;;;28.96;74.65
41250;BME280;26984;59.928;30.306;2023-08-06T10:12:48;101178.19;;;28.93;75.52
41250;BME280;26984;59.928;30.306;2023-08-06T10:15:19;101168.56;;;28.82;76.22
41250;BME280;26984;59.928;30.306;2023-08-06T10:17:48;101168.06;;;28.80;76.68
41250;BME280;26984;59.928;30.306;2023-08-06T10:20:18;101171.34;;;28.82;75.85
41250;BME280;26984;59.928;30.306;2023-08-06T10:22:47;101165.13;;;28.68;76.43
41250;BME280;26984;59.928;30.306;2023-08-06T10:25:26;101167.41;;;28.66;77.23
41250;BME280;26984;59.928;30.306;2023-08-06T10:27:57;101167.91;;;28.76;76.53
41250;BME280;26984;59.928;30.306;2023-08-06T10:30:26;101168.22;;;28.92;76.04
41250;BME280;26984;59.928;30.306;2023-08-06T10:32:54;101168.56;;;29.08;74.87
41250;BME280;26984;59.928;30.306;2023-08-06T10:35:29;101174.59;;;28.93;74.79
41250;BME280;26984;59.928;30.306;2023-08-06T10:38:03;101170.50;;;28.90;75.25
41250;BME280;26984;59.928;30.306;2023-08-06T10:40:31;101182.44;;;29.08;74.79
41250;BME280;26984;59.928;30.306;2023-08-06T10:42:58;101178.13;;;29.28;74.38
41250;BME280;26984;59.928;30.306;2023-08-06T10:45:27;101174.50;;;29.53;73.72
41250;BME280;26984;59.928;30.306;2023-08-06T10:47:56;101166.97;;;29.63;72.72
41250;BME280;26984;59.928;30.306;2023-08-06T10:50:24;101176.75;;;29.69;71.77
41250;BME280;26984;59.928;30.306;2023-08-06T10:52:52;101163.38;;;29.71;71.97
41250;BME280;26984;59.928;30.306;2023-08-06T10:55:23;101161.69;;;29.78;72.35
41250;BME280;26984;59.928;30.306;2023-08-06T10:57:51;101152.50;;;29.87;71.39
41250;BME280;26984;59.928;30.306;2023-08-06T11:00:18;101159.31;;;29.98;72.12
41250;BME280;26984;59.928;30.306;2023-08-06T11:02:48;101158.78;;;30.04;70.97
41250;BME280;26984;59.928;30.306;2023-08-06T11:05:15;101155.03;;;30.00;69.62
41250;BME280;26984;59.928;30.306;2023-08-06T11:07:43;101159.06;;;29.82;71.21
41250;BME280;26984;59.928;30.306;2023-08-06T11:10:10;101161.56;;;29.66;71.41
41250;BME280;26984;59.928;30.306;2023-08-06T11:12:38;101156.66;;;29.72;72.32
41250;BME280;26984;59.928;30.306;2023-08-06T11:15:06;101164.56;;;29.91;71.63
41250;BME280;26984;59.928;30.306;2023-08-06T11:17:34;101151.53;;;30.12;70.48
41250;BME280;26984;59.928;30.306;2023-08-06T11:20:03;101165.28;;;30.09;68.72
41250;BME280;26984;59.928;30.306;2023-08-06T11:22:32;101165.53;;;29.95;70.00
41250;BME280;26984;59.928;30.306;2023-08-06T11:25:00;101161.31;;;29.89;71.10
41250;BME280;26984;59.928;30.306;2023-08-06T11:27:28;101159.81;;;29.91;71.40
41250;BME280;26984;59.928;30.306;2023-08-06T11:29:56;101156.59;;;29.89;70.25
41250;BME280;26984;59.928;30.306;2023-08-06T11:32:23;101156.09;;;29.87;70.46
41250;BME280;26984;59.928;30.306;2023-08-06T11:34:52;101149.94;;;29.81;70.32
41250;BME280;26984;59.928;30.306;2023-08-06T11:37:22;101151.06;;;29.80;71.66
41250;BME280;26984;59.928;30.306;2023-08-06T11:39:51;101156.59;;;29.80;70.83
41250;BME280;26984;59.928;30.306;2023-08-06T11:42:18;101146.66;;;29.79;71.16
41250;BME280;26984;59.928;30.306;2023-08-06T11:44:46;101147.31;;;29.76;70.72
41250;BME280;26984;59.928;30.306;2023-08-06T11:47:14;101141.88;;;29.89;71.04
41250;BME280;26984;59.928;30.306;2023-08-06T11:49:42;101137.44;;;29.96;68.62
41250;BME280;26984;59.928;30.306;2023-08-06T11:52:12;101148.84;;;29.95;68.81
41250;BME280;26984;59.928;30.306;2023-08-06T11:54:42;101140.59;;;29.86;69.97
41250;BME280;26984;59.928;30.306;2023-08-06T11:57:10;101148.91;;;29.86;70.19
41250;BME280;26984;59.928;30.306;2023-08-06T11:59:38;101141.81;;;29.97;70.17
41250;BME280;26984;59.928;30.306;2023-08-06T12:02:07;101143.72;;;30.05;69.92
41250;BME280;26984;59.928;30.306;2023-08-06T12:07:25;101132.53;;;30.23;69.76
41250;BME280;26984;59.928;30.306;2023-08-06T12:09:54;101133.09;;;30.37;68.78
41250;BME280;26984;59.928;30.306;2023-08-06T12:12:22;101132.41;;;30.40;69.12
41250;BME280;26984;59.928;30.306;2023-08-06T12:14:49;101128.03;;;30.39;69.22
41250;BME280;26984;59.928;30.306;2023-08-06T12:17:17;101124.88;;;30.41;68.01
41250;BME280;26984;59.928;30.306;2023-08-06T12:19:44;101128.03;;;30.39;69.02
41250;BME280;26984;59.928;30.306;2023-08-06T12:22:12;101121.44;;;30.44;68.37
41250;BME280;26984;59.928;30.306;2023-08-06T12:24:40;101117.97;;;30.47;68.19
41250;BME280;26984;59.928;30.306;2023-08-06T12:27:09;101120.84;;;30.38;69.06
41250;BME280;26984;59.928;30.306;2023-08-06T12:29:37;101109.03;;;30.41;69.43
41250;BME280;26984;59.928;30.306;2023-08-06T12:32:05;101118.47;;;30.49;68.70
41250;BME280;26984;59.928;30.306;2023-08-06T12:34:32;101112.69;;;30.54;69.03
41250;BME280;26984;59.928;30.306;2023-08-06T12:37:00;101119.13;;;30.67;68.47
41250;BME280;26984;59.928;30.306;2023-08-06T12:39:27;101107.78;;;30.72;67.52
41250;BME280;26984;59.928;30.306;2023-08-06T12:41:54;101117.97;;;30.68;67.74
41250;BME280;26984;59.928;30.306;2023-08-06T12:44:24;101106.28;;;30.74;68.08